Time;durP1;ratioP1;P1;durP2;ratioP2;P2;SDS_P1;SDS_P2;PMS_P1;PMS_P2;Temp;Humidity;BMP_temperature;BMP_pressure;BME280_temperature;BME280_humidity;BME280_pressure;Samples;Min_cycle;Max_cycle;Signal;HPM_P1;HPM_P2
2023/10/29 00:01:02;;;;;;;7.80;3.50;;;;;;;8.78;76.91;96486.88;108212;1245;98304;-79
2023/10/29 00:03:48;;;;;;;4.90;3.30;;;;;;;8.79;77.15;96481.48;108270;1234;101139;-80
2023/10/29 00:06:14;;;;;;;6.40;3.80;;;;;;;8.79;77.17;96476.90;108256;1237;96546;-80
2023/10/29 00:08:40;;;;;;;6.50;3.60;;;;;;;8.82;77.22;96481.11;108212;1232;97824;-80
2023/10/29 00:11:07;;;;;;;5.90;3.50;;;;;;;8.82;77.31;96487.59;108278;1232;97233;-80
2023/10/29 00:13:34;;;;;;;8.20;4.40;;;;;;;8.81;77.39;96489.45;108284;1234;100587;-80
2023/10/29 00:16:00;;;;;;;6.00;3.40;;;;;;;8.83;77.46;96488.30;108229;1234;97075;-80
2023/10/29 00:18:26;;;;;;;8.00;3.70;;;;;;;8.84;77.60;96482.73;108286;1232;96530;-80
2023/10/29 00:20:53;;;;;;;4.60;3.10;;;;;;;8.83;77.63;96480.52;108268;1234;98749;-79
2023/10/29 00:23:19;;;;;;;8.20;3.30;;;;;;;8.84;77.76;96478.06;108281;1233;102296;-80
2023/10/29 00:25:45;;;;;;;5.30;3.00;;;;;;;8.82;77.69;96480.54;108271;1234;97482;-80
2023/10/29 00:28:11;;;;;;;7.40;2.90;;;;;;;8.80;77.86;96475.96;108224;1234;97804;-80
2023/10/29 00:30:38;;;;;;;5.50;3.20;;;;;;;8.83;78.06;96475.88;108331;1232;96536;-73
2023/10/29 00:33:06;;;;;;;7.50;3.20;;;;;;;8.85;77.99;96468.61;108237;1234;101951;-74
2023/10/29 00:35:33;;;;;;;6.70;3.00;;;;;;;8.87;78.00;96470.45;108238;1235;100245;-81
2023/10/29 00:37:59;;;;;;;5.90;2.90;;;;;;;8.89;78.08;96475.38;107930;1241;97037;-81
2023/10/29 00:40:30;;;;;;;4.80;2.80;;;;;;;8.92;78.15;96463.14;108242;1235;96567;-81
2023/10/29 00:42:58;;;;;;;6.10;2.70;;;;;;;8.91;78.26;96464.64;108238;1242;97357;-82
2023/10/29 00:45:24;;;;;;;5.40;3.00;;;;;;;8.88;78.37;96468.52;108266;1231;102669;-80
2023/10/29 00:47:50;;;;;;;6.60;3.50;;;;;;;8.87;78.33;96469.02;108204;1234;96624;-80
2023/10/29 00:50:17;;;;;;;5.60;2.90;;;;;;;8.86;78.42;96459.79;108254;1235;97574;-81
2023/10/29 00:52:43;;;;;;;8.70;3.10;;;;;;;8.88;78.57;96463.13;108320;1234;96616;-81
2023/10/29 00:55:10;;;;;;;5.20;2.40;;;;;;;8.90;78.47;96466.80;108249;1236;102243;-75
2023/10/29 00:57:37;;;;;;;6.40;2.20;;;;;;;8.92;78.44;96469.23;107943;1238;97039;-74
2023/10/29 01:00:06;;;;;;;4.00;2.20;;;;;;;8.90;78.54;96467.71;107830;1238;96605;-75
2023/10/29 01:02:34;;;;;;;10.10;2.60;;;;;;;8.88;78.54;96467.18;108192;1231;97580;-79
2023/10/29 01:05:02;;;;;;;10.40;3.30;;;;;;;8.88;78.56;96467.02;108237;1238;96637;-80
2023/10/29 01:07:30;;;;;;;7.10;2.70;;;;;;;8.88;78.65;96467.27;107971;1237;97803;-80
2023/10/29 01:09:59;;;;;;;6.60;2.70;;;;;;;8.87;78.60;96463.17;107545;1232;96883;-79
2023/10/29 01:12:27;;;;;;;5.10;2.70;;;;;;;8.84;78.89;96466.94;107941;1238;99728;-79
2023/10/29 01:14:54;;;;;;;4.60;2.70;;;;;;;8.83;78.89;96470.98;108200;1232;96475;-80
2023/10/29 01:17:21;;;;;;;6.00;2.60;;;;;;;8.85;78.96;96473.09;108228;1235;96652;-80
2023/10/29 01:19:47;;;;;;;4.70;2.60;;;;;;;8.87;78.97;96470.66;108299;1235;97465;-80
2023/10/29 01:22:14;;;;;;;4.20;2.50;;;;;;;8.87;79.04;96469.05;108228;1232;96553;-80
2023/10/29 01:24:40;;;;;;;6.50;2.30;;;;;;;8.85;79.07;96473.51;108290;1234;96582;-80
2023/10/29 01:27:07;;;;;;;5.10;2.50;;;;;;;8.86;79.17;96465.64;108254;1238;96967;-80
2023/10/29 01:29:34;;;;;;;4.50;2.80;;;;;;;8.86;79.20;96468.94;108232;1235;96576;-80
2023/10/29 01:32:00;;;;;;;3.00;2.20;;;;;;;8.86;79.30;96470.56;108178;1245;97337;-80
2023/10/29 01:34:26;;;;;;;6.10;2.70;;;;;;;8.89;79.34;96477.52;108259;1231;97202;-80
2023/10/29 01:36:53;;;;;;;6.00;2.40;;;;;;;8.90;79.46;96479.88;108247;1244;97184;-80
2023/10/29 01:39:19;;;;;;;4.20;2.40;;;;;;;8.92;79.54;96482.52;108228;1232;96540;-80
2023/10/29 01:41:45;;;;;;;5.90;2.60;;;;;;;8.89;79.61;96479.64;108226;1232;97793;-80
2023/10/29 01:44:12;;;;;;;5.30;2.70;;;;;;;8.90;79.69;96481.20;108270;1231;96671;-80
2023/10/29 01:46:38;;;;;;;5.80;2.70;;;;;;;8.91;79.65;96485.14;108265;1234;97311;-81
2023/10/29 01:49:07;;;;;;;4.80;2.70;;;;;;;8.93;79.75;96481.09;108103;1235;97360;-81
2023/10/29 01:51:33;;;;;;;5.60;2.60;;;;;;;8.93;79.78;96480.88;108237;1242;101146;-80
2023/10/29 01:54:00;;;;;;;4.80;3.00;;;;;;;8.95;79.88;96481.80;108206;1242;97777;-80
2023/10/29 01:56:26;;;;;;;4.60;3.70;;;;;;;8.94;79.70;96478.53;108211;1235;96627;-80
2023/10/29 01:58:53;;;;;;;5.60;3.90;;;;;;;8.95;79.79;96480.02;108300;1235;97140;-80
2023/10/29 02:01:19;;;;;;;7.70;6.80;;;;;;;8.95;79.83;96483.04;108244;1242;101518;-80
2023/10/29 02:03:45;;;;;;;7.60;4.90;;;;;;;8.97;79.69;96480.41;108214;1244;97352;-80
2023/10/29 02:06:18;;;;;;;8.20;4.20;;;;;;;8.99;79.85;96480.58;108218;1234;96546;-79
2023/10/29 02:08:45;;;;;;;4.30;3.60;;;;;;;9.00;79.87;96481.38;107882;1240;97012;-80
2023/10/29 02:11:11;;;;;;;4.50;3.00;;;;;;;9.02;80.03;96477.98;108213;1235;96774;-74
2023/10/29 02:13:38;;;;;;;5.40;3.20;;;;;;;9.03;80.00;96475.15;108129;1242;96543;-73
2023/10/29 02:16:04;;;;;;;5.60;2.70;;;;;;;9.03;80.01;96481.14;108290;1232;96624;-74
2023/10/29 02:18:31;;;;;;;4.40;2.90;;;;;;;9.01;80.08;96478.39;108255;1232;97062;-73
2023/10/29 02:20:57;;;;;;;4.00;2.70;;;;;;;9.00;80.13;96479.27;108264;1244;96807;-73
2023/10/29 02:23:23;;;;;;;6.60;2.40;;;;;;;8.99;80.12;96476.75;108219;1235;97462;-73
2023/10/29 02:25:50;;;;;;;3.20;1.70;;;;;;;8.99;80.18;96472.48;108276;1234;96557;-73
2023/10/29 02:28:16;;;;;;;3.20;1.90;;;;;;;8.97;80.06;96476.64;108257;1234;97036;-73
2023/10/29 02:30:42;;;;;;;5.20;1.70;;;;;;;8.98;79.99;96480.27;108115;1244;96774;-80
2023/10/29 02:33:08;;;;;;;4.40;1.60;;;;;;;8.97;79.94;96481.16;108215;1241;97724;-80
2023/10/29 02:35:35;;;;;;;3.60;2.40;;;;;;;8.98;80.03;96484.75;108306;1231;97572;-80
2023/10/29 02:38:01;;;;;;;3.90;1.70;;;;;;;8.97;79.96;96487.62;108209;1235;97062;-80
2023/10/29 02:40:27;;;;;;;2.50;1.50;;;;;;;8.99;79.82;96489.09;108254;1232;97797;-80
2023/10/29 02:42:54;;;;;;;3.30;2.00;;;;;;;8.99;79.85;96488.59;108254;1238;96562;-80
2023/10/29 02:45:20;;;;;;;4.30;1.90;;;;;;;9.01;79.84;96491.36;108283;1244;96784;-80
2023/10/29 02:47:46;;;;;;;3.70;1.60;;;;;;;9.02;79.81;96491.39;108115;1232;97004;-80
2023/10/29 02:50:13;;;;;;;2.60;1.80;;;;;;;8.99;79.73;96491.33;108193;1245;96655;-73
2023/10/29 02:52:40;;;;;;;3.40;1.90;;;;;;;8.96;79.61;96487.70;108250;1244;96684;-80
2023/10/29 02:55:07;;;;;;;4.70;1.80;;;;;;;8.97;79.52;96494.08;108268;1231;97359;-80
2023/10/29 02:57:33;;;;;;;3.20;1.60;;;;;;;8.94;79.38;96498.08;108287;1243;96972;-80
2023/10/29 03:00:00;;;;;;;3.30;1.80;;;;;;;8.93;79.35;96494.18;108235;1244;97488;-80
2023/10/29 03:02:26;;;;;;;3.50;2.10;;;;;;;8.89;79.30;96491.31;108426;1235;97090;-73
2023/10/29 03:04:53;;;;;;;4.60;2.00;;;;;;;8.89;79.36;96494.42;108259;1235;96659;-73
2023/10/29 03:07:19;;;;;;;4.30;1.70;;;;;;;8.88;79.31;96500.39;108219;1241;97065;-73
2023/10/29 03:09:46;;;;;;;3.20;1.70;;;;;;;8.87;79.27;96495.52;108198;1235;97117;-73
2023/10/29 03:12:12;;;;;;;5.60;1.80;;;;;;;8.85;79.19;96488.70;108239;1232;96477;-73
2023/10/29 03:14:38;;;;;;;5.30;1.80;;;;;;;8.84;79.03;96487.14;108285;1245;96889;-74
2023/10/29 03:17:05;;;;;;;5.30;1.80;;;;;;;8.78;79.14;96495.08;108201;1243;97117;-73
2023/10/29 03:19:31;;;;;;;2.90;1.50;;;;;;;8.79;79.09;96500.58;108242;1234;97487;-73
2023/10/29 03:21:57;;;;;;;4.60;1.70;;;;;;;8.73;79.02;96508.45;108284;1238;96559;-73
2023/10/29 03:24:24;;;;;;;3.20;2.00;;;;;;;8.70;78.92;96507.59;108289;1235;97131;-73
2023/10/29 03:26:51;;;;;;;3.40;1.40;;;;;;;8.68;79.12;96512.92;108237;1234;96963;-80
2023/10/29 03:29:17;;;;;;;4.20;1.90;;;;;;;8.64;79.09;96520.29;108280;1234;96648;-75
2023/10/29 03:31:43;;;;;;;5.20;2.60;;;;;;;8.55;78.98;96518.99;108128;1243;115641;-74
2023/10/29 03:34:11;;;;;;;2.50;2.00;;;;;;;8.51;79.00;96529.38;107983;1240;96596;-74
2023/10/29 03:36:38;;;;;;;4.30;2.40;;;;;;;8.45;78.95;96528.59;108281;1233;97046;-75
2023/10/29 03:39:05;;;;;;;2.70;1.80;;;;;;;8.42;79.03;96534.37;108229;1235;97773;-75
2023/10/29 03:41:31;;;;;;;3.40;1.90;;;;;;;8.34;79.05;96528.76;107951;1244;96585;-74
2023/10/29 03:43:58;;;;;;;1.90;1.60;;;;;;;8.27;78.93;96534.58;108234;1244;96540;-74
2023/10/29 03:46:24;;;;;;;2.70;1.60;;;;;;;8.18;78.96;96536.17;108228;1231;96538;-81
2023/10/29 03:48:50;;;;;;;3.60;1.80;;;;;;;8.11;79.01;96535.42;108269;1232;101970;-80
2023/10/29 03:51:17;;;;;;;4.20;1.80;;;;;;;8.05;78.99;96532.08;108236;1235;96537;-80
2023/10/29 03:53:43;;;;;;;6.30;2.10;;;;;;;7.99;79.08;96526.89;108229;1232;97775;-81
2023/10/29 03:56:09;;;;;;;2.30;1.60;;;;;;;7.94;78.95;96525.16;108300;1232;96529;-81
2023/10/29 03:58:35;;;;;;;2.30;1.70;;;;;;;7.89;79.07;96525.97;108210;1234;100660;-81
2023/10/29 04:01:02;;;;;;;4.60;2.20;;;;;;;7.82;79.06;96525.81;108294;1231;96784;-81
2023/10/29 04:03:29;;;;;;;6.40;3.20;;;;;;;7.78;79.29;96525.58;108310;1241;96565;-81
2023/10/29 04:05:56;;;;;;;4.10;2.50;;;;;;;7.75;79.35;96524.88;108281;1234;96957;-81
2023/10/29 04:08:22;;;;;;;6.20;2.30;;;;;;;7.73;79.38;96523.58;107837;1230;102172;-81
2023/10/29 04:10:49;;;;;;;6.50;3.00;;;;;;;7.65;79.28;96523.13;108285;1234;96973;-81
2023/10/29 04:13:15;;;;;;;6.90;3.00;;;;;;;7.56;79.42;96526.14;108233;1232;97769;-82
2023/10/29 04:15:41;;;;;;;6.40;2.80;;;;;;;7.48;79.83;96532.75;108301;1245;97782;-74
2023/10/29 04:18:07;;;;;;;5.50;3.00;;;;;;;7.41;80.04;96538.30;108254;1234;102344;-75
2023/10/29 04:20:34;;;;;;;5.60;3.20;;;;;;;7.39;80.16;96541.00;108200;1234;97115;-74
2023/10/29 04:23:00;;;;;;;7.00;3.90;;;;;;;7.41;80.33;96534.71;108152;1234;97079;-75
2023/10/29 04:25:26;;;;;;;6.70;3.70;;;;;;;7.44;80.40;96537.85;108319;1234;96541;-85
2023/10/29 04:27:54;;;;;;;7.00;4.00;;;;;;;7.41;80.39;96534.34;108241;1244;101024;-84
2023/10/29 04:30:20;;;;;;;7.90;4.70;;;;;;;7.37;80.47;96537.75;108229;1238;101213;-83
2023/10/29 04:32:48;;;;;;;5.90;3.90;;;;;;;7.34;80.51;96537.52;108238;1234;97462;-83
2023/10/29 04:35:14;;;;;;;6.60;3.50;;;;;;;7.33;80.61;96526.98;108208;1245;97778;-83
2023/10/29 04:37:40;;;;;;;8.70;4.10;;;;;;;7.35;80.46;96530.05;108194;1234;96765;-83
2023/10/29 04:40:07;;;;;;;6.90;4.00;;;;;;;7.33;80.49;96528.02;108326;1234;97778;-84
2023/10/29 04:42:34;;;;;;;5.60;3.30;;;;;;;7.30;80.43;96523.89;108220;1241;99612;-83
2023/10/29 04:45:00;;;;;;;7.60;3.90;;;;;;;7.28;80.43;96521.83;108252;1229;96552;-75
2023/10/29 04:47:26;;;;;;;8.40;5.90;;;;;;;7.19;80.35;96515.73;108236;1245;97469;-85
2023/10/29 04:49:52;;;;;;;7.10;4.90;;;;;;;7.15;80.40;96518.03;108316;1231;96564;-83
2023/10/29 04:52:19;;;;;;;10.60;5.50;;;;;;;7.15;80.58;96515.27;108220;1234;100129;-83
2023/10/29 04:54:46;;;;;;;12.40;5.70;;;;;;;7.14;80.56;96512.39;108228;1238;96681;-85
2023/10/29 04:57:12;;;;;;;12.70;7.00;;;;;;;7.07;80.56;96508.73;108317;1235;97218;-83
2023/10/29 04:59:38;;;;;;;13.70;7.00;;;;;;;7.02;80.82;96508.78;108420;1234;97781;-84
2023/10/29 05:02:05;;;;;;;14.80;8.20;;;;;;;6.99;80.96;96506.20;108113;1234;98623;-73
2023/10/29 05:04:31;;;;;;;18.20;8.30;;;;;;;6.97;81.02;96506.71;108180;1232;97786;-73
2023/10/29 05:06:57;;;;;;;13.30;7.70;;;;;;;6.96;81.14;96501.52;108262;1244;97452;-73
2023/10/29 05:09:24;;;;;;;14.60;7.50;;;;;;;6.97;81.11;96500.14;108280;1244;96557;-73
2023/10/29 05:11:50;;;;;;;11.90;6.00;;;;;;;6.97;81.08;96501.71;108244;1245;99840;-73
2023/10/29 05:14:16;;;;;;;9.40;5.60;;;;;;;6.96;81.01;96502.50;108259;1235;96542;-73
2023/10/29 05:16:43;;;;;;;11.50;6.50;;;;;;;6.93;80.98;96502.00;108221;1244;96537;-78
2023/10/29 05:19:09;;;;;;;11.70;6.40;;;;;;;6.93;81.06;96504.36;108364;1234;97514;-79
2023/10/29 05:21:35;;;;;;;6.10;4.70;;;;;;;6.89;81.14;96504.36;108258;1245;100027;-79
2023/10/29 05:24:02;;;;;;;6.20;4.90;;;;;;;6.86;81.31;96505.80;108143;1241;97452;-79
2023/10/29 05:26:29;;;;;;;8.30;4.60;;;;;;;6.82;81.37;96509.71;108278;1235;97780;-73
2023/10/29 05:28:55;;;;;;;6.50;4.50;;;;;;;6.82;81.36;96514.20;108339;1244;97171;-73
2023/10/29 05:31:21;;;;;;;9.10;4.90;;;;;;;6.81;81.38;96512.77;108215;1234;106953;-79
2023/10/29 05:33:47;;;;;;;13.80;5.60;;;;;;;6.78;81.63;96513.21;108238;1235;96538;-79
2023/10/29 05:36:14;;;;;;;8.60;5.10;;;;;;;6.74;81.60;96510.84;108249;1235;97426;-79
2023/10/29 05:38:40;;;;;;;6.80;4.80;;;;;;;6.77;81.58;96513.67;108277;1234;96627;-78
2023/10/29 05:41:06;;;;;;;7.60;4.90;;;;;;;6.78;81.61;96515.77;108243;1235;99495;-78
2023/10/29 05:43:34;;;;;;;13.80;6.50;;;;;;;6.78;81.66;96514.04;108265;1242;97724;-72
2023/10/29 05:46:01;;;;;;;9.90;5.70;;;;;;;6.77;81.64;96517.96;108320;1233;97055;-73
2023/10/29 05:48:28;;;;;;;9.40;5.30;;;;;;;6.78;81.59;96519.85;108287;1245;97353;-72
2023/10/29 05:50:54;;;;;;;11.20;6.00;;;;;;;6.73;81.62;96528.17;108243;1234;97037;-72
2023/10/29 05:53:20;;;;;;;7.60;5.30;;;;;;;6.71;81.76;96534.48;107883;1246;97472;-72
2023/10/29 05:55:47;;;;;;;7.60;6.40;;;;;;;6.73;81.87;96538.04;107838;1246;97199;-73
2023/10/29 05:58:13;;;;;;;9.10;6.20;;;;;;;6.76;81.87;96541.41;107860;1244;96743;-73
2023/10/29 06:00:39;;;;;;;7.30;5.90;;;;;;;6.75;81.79;96537.08;107879;1249;96710;-79
2023/10/29 06:03:05;;;;;;;8.50;5.10;;;;;;;6.75;81.79;96547.15;107911;1238;98035;-79
2023/10/29 06:05:32;;;;;;;9.60;5.00;;;;;;;6.73;81.85;96548.89;107842;1238;97072;-79
2023/10/29 06:07:58;;;;;;;7.80;5.40;;;;;;;6.74;81.90;96547.36;107833;1238;96895;-78
2023/10/29 06:10:24;;;;;;;8.60;5.90;;;;;;;6.70;81.85;96544.34;107834;1240;97881;-79
2023/10/29 06:12:51;;;;;;;7.30;5.20;;;;;;;6.72;81.95;96547.65;107423;1241;96717;-79
2023/10/29 06:15:17;;;;;;;12.10;4.70;;;;;;;6.74;82.01;96553.64;107423;1248;97231;-75
2023/10/29 06:17:43;;;;;;;7.80;4.50;;;;;;;6.73;82.03;96559.98;107346;1249;97332;-75
2023/10/29 06:20:16;;;;;;;7.40;5.90;;;;;;;6.72;82.15;96562.02;107303;1243;97878;-75
2023/10/29 06:22:44;;;;;;;12.60;7.40;;;;;;;6.72;82.20;96564.77;107397;1244;99265;-84
2023/10/29 06:25:11;;;;;;;10.70;7.80;;;;;;;6.73;82.21;96566.96;107592;1241;96621;-84
2023/10/29 06:27:37;;;;;;;11.40;7.80;;;;;;;6.77;82.24;96569.83;107780;1248;97099;-85
2023/10/29 06:30:04;;;;;;;12.40;7.90;;;;;;;6.79;82.24;96572.23;107783;1248;96606;-84
2023/10/29 06:32:30;;;;;;;12.10;8.20;;;;;;;6.77;82.17;96574.41;107875;1240;97203;-75
2023/10/29 06:34:57;;;;;;;11.60;6.90;;;;;;;6.75;82.23;96581.85;107771;1238;97679;-75
2023/10/29 06:37:23;;;;;;;9.00;6.90;;;;;;;6.74;82.25;96584.75;107793;1247;96727;-75
2023/10/29 06:39:49;;;;;;;9.00;6.60;;;;;;;6.77;82.37;96585.23;107783;1240;97788;-75
2023/10/29 06:42:15;;;;;;;11.30;8.60;;;;;;;6.82;82.40;96588.57;107853;1240;96583;-75
2023/10/29 06:44:42;;;;;;;11.00;8.10;;;;;;;6.86;82.52;96587.01;107771;1247;97333;-75
2023/10/29 06:47:08;;;;;;;12.60;7.90;;;;;;;6.90;82.52;96580.64;107731;1242;96752;-75
2023/10/29 06:49:34;;;;;;;10.20;7.10;;;;;;;6.91;82.71;96580.52;107733;1250;96551;-75
2023/10/29 06:52:01;;;;;;;12.00;6.60;;;;;;;6.94;82.83;96582.83;108241;1245;97455;-75
2023/10/29 06:54:27;;;;;;;7.90;5.80;;;;;;;6.99;82.82;96582.44;108222;1237;97469;-75
2023/10/29 06:56:53;;;;;;;10.20;6.60;;;;;;;7.06;82.97;96583.34;108282;1235;96457;-75
2023/10/29 06:59:20;;;;;;;10.70;6.20;;;;;;;7.13;83.09;96579.11;108197;1238;97709;-73
2023/10/29 07:01:46;;;;;;;10.40;6.10;;;;;;;7.20;83.10;96582.49;108223;1245;97780;-73
2023/10/29 07:04:13;;;;;;;10.60;6.50;;;;;;;7.29;83.20;96582.09;107984;1238;96637;-73
2023/10/29 07:06:39;;;;;;;11.20;6.10;;;;;;;7.38;83.18;96582.60;108275;1244;96544;-73
2023/10/29 07:09:06;;;;;;;10.70;5.80;;;;;;;7.47;83.39;96579.56;108296;1239;96577;-73
2023/10/29 07:11:32;;;;;;;11.10;6.90;;;;;;;7.57;83.46;96580.11;108289;1245;97466;-73
2023/10/29 07:13:58;;;;;;;10.50;6.10;;;;;;;7.67;83.39;96583.33;108237;1235;97376;-73
2023/10/29 07:16:25;;;;;;;7.70;5.70;;;;;;;7.77;83.31;96583.36;108222;1243;96550;-73
2023/10/29 07:18:51;;;;;;;8.70;5.70;;;;;;;7.87;83.27;96581.50;108300;1234;97461;-73
2023/10/29 07:21:18;;;;;;;6.30;5.10;;;;;;;7.99;83.26;96585.77;107904;1245;97591;-73
2023/10/29 07:23:44;;;;;;;7.50;4.20;;;;;;;8.13;83.22;96582.48;108245;1234;97088;-74
2023/10/29 07:26:10;;;;;;;10.70;4.40;;;;;;;8.28;83.12;96575.45;108269;1234;96610;-72
2023/10/29 07:28:37;;;;;;;9.60;4.80;;;;;;;8.44;83.32;96576.59;108253;1245;97669;-72
2023/10/29 07:31:03;;;;;;;10.40;5.20;;;;;;;8.61;83.34;96582.27;108220;1234;97099;-72
2023/10/29 07:33:29;;;;;;;12.80;5.40;;;;;;;8.76;83.28;96580.23;107863;1239;97566;-72
2023/10/29 07:35:56;;;;;;;7.00;5.00;;;;;;;8.90;83.04;96576.02;108202;1243;96553;-72
2023/10/29 07:38:22;;;;;;;12.20;4.90;;;;;;;9.02;82.86;96572.52;108205;1244;96521;-73
2023/10/29 07:40:49;;;;;;;7.40;4.20;;;;;;;9.14;82.87;96562.05;108317;1244;96565;-79
2023/10/29 07:43:16;;;;;;;6.40;3.90;;;;;;;9.28;82.80;96556.55;108210;1234;96579;-79
2023/10/29 07:45:42;;;;;;;5.10;3.40;;;;;;;9.43;82.57;96556.10;108204;1241;96771;-79
2023/10/29 07:48:08;;;;;;;5.20;3.30;;;;;;;9.59;82.32;96552.84;108269;1244;96783;-79
2023/10/29 07:50:34;;;;;;;11.40;3.70;;;;;;;9.78;82.13;96552.84;108268;1245;97731;-79
2023/10/29 07:53:01;;;;;;;7.00;3.10;;;;;;;9.95;81.92;96553.95;108179;1243;96690;-79
2023/10/29 07:55:27;;;;;;;4.80;2.90;;;;;;;10.11;81.25;96554.56;108231;1235;96979;-78
2023/10/29 07:57:53;;;;;;;5.60;2.60;;;;;;;10.29;80.84;96552.80;108245;1244;96536;-78
2023/10/29 08:00:20;;;;;;;5.10;2.30;;;;;;;10.48;80.62;96553.39;108299;1244;96692;-72
2023/10/29 08:02:46;;;;;;;4.10;2.10;;;;;;;10.68;80.22;96556.43;108201;1234;96799;-72
2023/10/29 08:05:14;;;;;;;2.60;2.10;;;;;;;10.88;79.88;96549.23;108261;1234;96654;-72
2023/10/29 08:07:41;;;;;;;5.00;2.70;;;;;;;11.09;79.37;96543.19;108231;1235;96816;-74
2023/10/29 08:10:08;;;;;;;5.60;2.60;;;;;;;11.27;78.76;96539.27;108252;1234;97798;-75
2023/10/29 08:12:34;;;;;;;8.80;3.00;;;;;;;11.47;78.19;96538.98;108258;1237;97803;-75
2023/10/29 08:15:02;;;;;;;7.00;3.20;;;;;;;11.67;77.74;96536.53;108207;1232;97726;-78
2023/10/29 08:17:29;;;;;;;4.80;2.40;;;;;;;11.88;77.39;96537.08;107662;1241;101465;-78
2023/10/29 08:19:56;;;;;;;3.90;2.10;;;;;;;12.08;77.14;96539.64;108058;1245;96691;-78
2023/10/29 08:22:22;;;;;;;2.80;1.70;;;;;;;12.27;76.37;96540.91;108283;1235;96674;-78
2023/10/29 08:24:48;;;;;;;3.20;1.70;;;;;;;12.43;75.71;96538.98;108220;1245;97179;-78
2023/10/29 08:27:14;;;;;;;4.70;2.00;;;;;;;12.59;75.56;96538.55;108322;1234;97469;-78
2023/10/29 08:29:43;;;;;;;2.60;1.50;;;;;;;12.75;75.50;96539.63;108194;1244;101427;-77
2023/10/29 08:32:09;;;;;;;6.80;1.80;;;;;;;12.93;75.40;96534.50;108318;1235;100021;-77
2023/10/29 08:34:35;;;;;;;5.20;2.00;;;;;;;13.11;74.49;96529.71;108106;1244;96617;-75
2023/10/29 08:37:02;;;;;;;3.30;1.80;;;;;;;13.24;74.08;96522.09;108031;1245;96535;-82
2023/10/29 08:39:29;;;;;;;3.50;2.10;;;;;;;13.43;74.11;96526.05;108138;1245;96560;-81
2023/10/29 08:41:56;;;;;;;5.30;1.70;;;;;;;13.60;73.40;96528.45;108202;1235;99834;-81
2023/10/29 08:44:22;;;;;;;4.70;1.70;;;;;;;13.76;73.14;96529.95;108218;1244;97730;-81
2023/10/29 08:46:48;;;;;;;2.20;1.70;;;;;;;13.92;72.94;96528.99;108305;1241;96543;-79
2023/10/29 08:49:15;;;;;;;3.80;1.70;;;;;;;14.09;72.59;96532.40;108189;1244;96557;-79
2023/10/29 08:51:41;;;;;;;3.80;2.00;;;;;;;14.19;71.58;96531.20;108145;1244;100082;-79
2023/10/29 08:54:08;;;;;;;3.70;1.90;;;;;;;14.24;71.35;96529.02;108148;1244;96538;-75
2023/10/29 08:56:35;;;;;;;5.50;2.00;;;;;;;14.31;70.89;96525.73;108202;1244;97481;-80
2023/10/29 08:59:05;;;;;;;3.70;1.60;;;;;;;14.37;70.41;96521.50;108124;1235;97484;-79
2023/10/29 09:01:32;;;;;;;3.30;2.00;;;;;;;14.46;70.77;96520.75;107766;1240;99879;-74
2023/10/29 09:04:00;;;;;;;2.70;1.60;;;;;;;14.58;70.53;96523.64;108207;1235;97781;-73
2023/10/29 09:06:27;;;;;;;2.90;1.60;;;;;;;14.69;70.18;96522.48;107360;1245;97796;-74
2023/10/29 09:08:53;;;;;;;6.30;1.90;;;;;;;14.83;69.37;96521.30;107801;1245;97071;-73
2023/10/29 09:11:19;;;;;;;6.50;2.00;;;;;;;14.94;68.88;96520.13;108761;1231;96570;-74
2023/10/29 09:13:46;;;;;;;3.60;1.70;;;;;;;15.04;69.04;96516.79;108720;1225;96991;-73
2023/10/29 09:16:13;;;;;;;3.60;1.60;;;;;;;15.17;68.84;96517.09;107992;1241;97541;-74
2023/10/29 09:18:40;;;;;;;3.70;2.30;;;;;;;15.29;68.56;96518.26;108096;1241;96653;-72
2023/10/29 09:21:07;;;;;;;3.70;1.70;;;;;;;15.42;68.15;96514.75;108808;1239;96656;-74
2023/10/29 09:23:33;;;;;;;3.80;2.00;;;;;;;15.59;67.56;96510.06;108658;1235;96633;-74
2023/10/29 09:25:59;;;;;;;2.50;1.50;;;;;;;15.72;66.44;96506.65;108804;1239;97250;-73
2023/10/29 09:28:26;;;;;;;2.90;1.80;;;;;;;15.74;65.86;96510.75;108716;1241;97036;-74
2023/10/29 09:30:53;;;;;;;4.00;2.30;;;;;;;15.75;65.64;96512.98;108734;1235;96528;-78
2023/10/29 09:33:20;;;;;;;4.00;1.70;;;;;;;15.78;65.52;96512.51;108203;1241;96719;-81
2023/10/29 09:35:46;;;;;;;3.90;2.00;;;;;;;15.84;64.97;96513.45;108710;1226;97236;-80
2023/10/29 09:38:12;;;;;;;3.20;1.80;;;;;;;15.95;64.90;96510.06;108802;1237;96534;-80
2023/10/29 09:40:39;;;;;;;2.90;1.70;;;;;;;16.07;65.54;96510.32;108733;1239;102077;-80
2023/10/29 09:43:08;;;;;;;3.30;1.50;;;;;;;16.16;65.25;96510.51;108742;1241;96583;-79
2023/10/29 09:45:39;;;;;;;2.80;1.80;;;;;;;16.26;65.17;96507.10;108790;1237;99880;-80
2023/10/29 09:48:08;;;;;;;2.70;2.00;;;;;;;16.36;64.01;96503.58;108630;1241;97467;-80
2023/10/29 09:50:34;;;;;;;5.20;2.00;;;;;;;16.43;64.19;96498.96;108686;1240;96956;-80
2023/10/29 09:53:03;;;;;;;4.40;2.10;;;;;;;16.51;63.84;96490.43;108863;1225;97753;-75
2023/10/29 09:55:32;;;;;;;3.90;1.90;;;;;;;16.58;63.94;96485.64;108729;1239;101149;-77
2023/10/29 09:57:59;;;;;;;5.60;1.80;;;;;;;16.68;63.59;96483.91;108181;1236;99848;-76
2023/10/29 10:00:26;;;;;;;4.00;2.10;;;;;;;16.82;63.62;96483.00;108639;1239;96972;-76
2023/10/29 10:02:56;;;;;;;3.00;1.60;;;;;;;16.96;63.29;96471.92;108768;1231;96780;-75
2023/10/29 10:05:25;;;;;;;2.20;1.60;;;;;;;17.11;62.20;96473.54;108245;1241;102058;-75
2023/10/29 10:07:52;;;;;;;4.30;2.30;;;;;;;17.21;60.55;96473.25;108800;1241;100253;-75
2023/10/29 10:10:19;;;;;;;5.20;1.50;;;;;;;17.31;60.74;96471.27;108651;1232;97243;-76
2023/10/29 10:12:50;;;;;;;4.20;2.00;;;;;;;17.44;59.66;96473.91;108336;1232;98001;-81
2023/10/29 10:15:20;;;;;;;3.20;1.80;;;;;;;17.56;59.20;96475.99;108302;1231;96995;-81
2023/10/29 10:17:48;;;;;;;2.90;1.70;;;;;;;17.66;59.37;96473.58;108825;1231;102131;-80
2023/10/29 10:20:16;;;;;;;2.30;1.40;;;;;;;17.80;58.94;96467.09;108288;1236;101302;-81
2023/10/29 10:22:43;;;;;;;14.70;2.10;;;;;;;17.94;58.39;96462.65;108332;1241;96590;-80
2023/10/29 10:25:18;;;;;;;7.30;1.50;;;;;;;18.12;58.78;96462.40;108730;1231;96547;-81
2023/10/29 10:27:52;;;;;;;4.50;1.50;;;;;;;18.35;58.77;96458.09;108778;1237;97973;-81
2023/10/29 10:30:30;;;;;;;4.70;1.40;;;;;;;18.56;58.53;96451.18;108728;1226;101239;-81
2023/10/29 10:33:10;;;;;;;2.60;1.20;;;;;;;18.77;57.52;96440.80;108719;1236;99696;-79
2023/10/29 10:35:47;;;;;;;6.40;1.50;;;;;;;18.99;57.39;96442.12;108766;1231;100301;-82
2023/10/29 10:38:15;;;;;;;2.10;1.30;;;;;;;19.23;57.26;96435.81;108759;1231;97791;-82
2023/10/29 10:40:42;;;;;;;3.90;1.40;;;;;;;19.45;56.87;96430.61;108328;1234;97241;-82
2023/10/29 10:43:09;;;;;;;3.50;1.30;;;;;;;19.63;54.95;96431.73;108379;1241;97982;-80
2023/10/29 10:45:37;;;;;;;4.00;1.50;;;;;;;19.66;52.93;96425.13;108278;1241;96912;-82
2023/10/29 10:48:05;;;;;;;3.10;1.40;;;;;;;19.71;53.87;96426.91;108788;1232;97784;-82
2023/10/29 10:50:34;;;;;;;4.10;1.50;;;;;;;19.85;54.09;96425.64;108781;1231;97083;-82
2023/10/29 10:53:02;;;;;;;2.20;1.40;;;;;;;19.96;50.96;96426.14;108288;1236;97056;-82
2023/10/29 10:55:30;;;;;;;1.70;1.10;;;;;;;20.07;53.01;96430.05;107928;1230;102189;-81
2023/10/29 10:57:57;;;;;;;3.20;1.60;;;;;;;20.21;51.56;96430.46;107981;1238;96614;-82
2023/10/29 11:00:23;;;;;;;2.60;1.30;;;;;;;20.25;50.28;96430.85;108213;1234;96735;-75
2023/10/29 11:02:52;;;;;;;3.80;1.10;;;;;;;20.27;49.19;96431.70;108220;1243;97153;-74
2023/10/29 11:05:19;;;;;;;3.90;1.40;;;;;;;20.33;50.37;96426.89;108277;1234;97344;-74
2023/10/29 11:07:45;;;;;;;1.90;1.50;;;;;;;20.50;50.53;96426.37;108212;1236;97099;-75
2023/10/29 11:10:13;;;;;;;5.60;1.60;;;;;;;20.63;50.49;96422.21;108108;1235;97681;-76
2023/10/29 11:12:40;;;;;;;3.90;1.10;;;;;;;20.75;49.69;96422.67;108258;1245;96753;-76
2023/10/29 11:15:21;;;;;;;4.60;1.20;;;;;;;20.82;47.89;96420.30;108193;1238;97065;-75
2023/10/29 11:18:00;;;;;;;2.40;1.20;;;;;;;20.80;47.46;96416.44;108243;1232;97146;-84
2023/10/29 11:20:36;;;;;;;3.00;1.20;;;;;;;20.84;47.65;96408.48;107871;1245;101980;-83
2023/10/29 11:23:26;;;;;;;2.80;1.20;;;;;;;20.98;48.28;96394.58;108276;1244;100172;-83
2023/10/29 11:26:23;;;;;;;5.20;1.30;;;;;;;21.12;48.14;96381.25;108781;1231;99822;-84
2023/10/29 11:28:53;;;;;;;3.60;1.20;;;;;;;21.24;48.12;96375.61;108802;1231;97695;-75